Jiaoxian, China
Current Conditions -  °F | °C
As of 7:00 PM on Friday 19 Dec 2014 (Local Time) from ZSQD Reporting Station
Haze Haze  
Wind Chill: 31°   Ceiling: Unl
Heat Index: 37°   Visibility: 3mi
Dew Point: 18°   Wind: 9mph
Humidity: 45%   Direction: 320°NW
Pressure: 30.21"   Gusts: 20mph
Location:  36.28°N, 120°E
Report Text: ZSQD 191100Z 32004G09MPS 5000 HZ NSC 03/M08 Q1023 NOSIG
Loading
Personal Weather Stations






























Interactive Weather Map New forecast layout! Learn more

10-Day Weather Forecast

Advertisements
Track Severe Weather on mobile